Time;durP1;ratioP1;P1;durP2;ratioP2;P2;SDS_P1;SDS_P2;PMS_P1;PMS_P2;Temp;Humidity;BMP_temperature;BMP_pressure;BME280_temperature;BME280_humidity;BME280_pressure;Samples;Min_cycle;Max_cycle;Signal;HPM_P1;HPM_P2
2023/11/25 00:02:42;;;;;;;24.87;10.47;;;0.00;99.90;;;;;;4452078;28;656844;-72
2023/11/25 00:05:29;;;;;;;21.70;9.53;;;0.00;99.90;;;;;;4430489;28;658046;-72
2023/11/25 00:08:16;;;;;;;20.40;8.83;;;0.00;99.90;;;;;;4450348;27;656957;-72
2023/11/25 00:11:04;;;;;;;15.20;5.23;;;0.10;99.90;;;;;;4424059;28;656578;-71
2023/11/25 00:13:51;;;;;;;21.53;10.00;;;0.10;99.90;;;;;;4452690;28;656898;-71
2023/11/25 00:16:39;;;;;;;19.30;8.80;;;0.10;99.90;;;;;;4444301;27;657578;-72
2023/11/25 00:19:26;;;;;;;26.43;8.60;;;0.10;99.90;;;;;;4456399;28;656603;-71
2023/11/25 00:22:13;;;;;;;6.30;2.87;;;0.10;99.90;;;;;;4438786;27;656773;-71
2023/11/25 00:25:01;;;;;;;18.57;8.03;;;0.10;99.90;;;;;;4452250;28;656129;-69
2023/11/25 00:27:49;;;;;;;4.60;2.20;;;0.20;99.90;;;;;;4431365;28;656326;-69
2023/11/25 00:30:36;;;;;;;10.10;5.03;;;0.20;99.90;;;;;;4449512;28;656819;-72
2023/11/25 00:33:24;;;;;;;7.53;4.03;;;0.20;99.90;;;;;;4434410;28;656515;-71
2023/11/25 00:36:12;;;;;;;15.70;6.33;;;0.20;99.90;;;;;;4446217;28;655904;-74
2023/11/25 00:39:00;;;;;;;17.40;6.97;;;0.20;99.90;;;;;;4428608;28;658008;-72
2023/11/25 00:41:48;;;;;;;3.97;2.27;;;0.20;99.90;;;;;;4427224;28;656937;-73
2023/11/25 00:44:35;;;;;;;16.70;7.60;;;0.20;99.90;;;;;;4454712;28;655081;-72
2023/11/25 00:47:23;;;;;;;14.40;7.25;;;0.20;99.90;;;;;;4441105;28;657212;-72
2023/11/25 00:50:15;;;;;;;18.67;8.57;;;0.20;99.90;;;;;;4458219;28;657356;-72
2023/11/25 00:53:03;;;;;;;17.93;8.70;;;0.20;99.90;;;;;;4415509;28;656685;-71
2023/11/25 00:55:50;;;;;;;21.13;9.60;;;0.20;99.90;;;;;;4455511;28;657190;-72
2023/11/25 00:58:37;;;;;;;28.20;11.97;;;0.20;99.90;;;;;;4458935;28;656567;-71
2023/11/25 01:01:25;;;;;;;20.03;9.50;;;0.20;99.90;;;;;;4453776;28;658594;-72
2023/11/25 01:04:12;;;;;;;26.83;10.67;;;0.20;99.90;;;;;;4440783;28;656815;-70
2023/11/25 01:07:01;;;;;;;24.57;10.53;;;0.20;99.90;;;;;;4452432;28;657451;-72
2023/11/25 01:09:48;;;;;;;19.37;9.60;;;0.20;99.90;;;;;;4425696;28;657789;-72
2023/11/25 01:12:35;;;;;;;21.20;8.93;;;0.30;99.90;;;;;;4452608;28;656900;-72
2023/11/25 01:15:24;;;;;;;2.97;2.03;;;0.30;99.90;;;;;;4431088;28;656462;-71
2023/11/25 01:18:11;;;;;;;17.87;8.17;;;0.30;99.90;;;;;;4451152;28;656289;-72
2023/11/25 01:20:58;;;;;;;16.10;8.20;;;0.30;99.90;;;;;;4426784;28;656975;-72
2023/11/25 01:23:47;;;;;;;20.60;8.70;;;0.30;99.90;;;;;;4463865;27;657822;-72
2023/11/25 01:26:34;;;;;;;5.90;2.43;;;0.30;99.90;;;;;;4438287;28;656771;-72
2023/11/25 01:29:22;;;;;;;10.97;4.80;;;0.40;99.90;;;;;;4460163;27;655472;-72
2023/11/25 01:32:10;;;;;;;17.73;8.13;;;0.40;99.90;;;;;;4435878;27;657254;-72
2023/11/25 01:34:57;;;;;;;17.20;6.23;;;0.40;99.90;;;;;;4411200;27;656526;-70
2023/11/25 01:37:44;;;;;;;14.90;6.67;;;0.50;99.90;;;;;;4407177;27;656845;-72
2023/11/25 01:40:33;;;;;;;20.77;9.70;;;0.60;99.90;;;;;;4451661;27;656611;-72
2023/11/25 01:43:23;;;;;;;8.37;3.67;;;0.50;99.90;;;;;;4439387;28;657132;-73
2023/11/25 01:46:10;;;;;;;14.30;7.77;;;0.50;99.90;;;;;;4437248;27;656985;-72
2023/11/25 01:48:58;;;;;;;15.30;7.17;;;0.50;99.90;;;;;;4438118;28;657076;-70
2023/11/25 01:51:46;;;;;;;13.13;5.37;;;0.60;99.90;;;;;;4456809;27;658033;-72
2023/11/25 01:54:33;;;;;;;16.83;7.70;;;0.60;99.90;;;;;;4436589;28;656347;-72
2023/11/25 01:57:22;;;;;;;13.10;6.33;;;0.60;99.90;;;;;;4461649;28;657330;-72
2023/11/25 02:00:11;;;;;;;17.57;7.87;;;0.50;99.90;;;;;;4436840;27;657441;-73
2023/11/25 02:02:58;;;;;;;12.33;4.37;;;0.50;99.90;;;;;;4427049;28;656533;-73
2023/11/25 02:05:45;;;;;;;16.03;7.20;;;0.60;99.90;;;;;;4456121;27;656925;-72
2023/11/25 02:08:32;;;;;;;13.00;6.83;;;0.60;99.90;;;;;;4429418;27;657393;-70
2023/11/25 02:11:20;;;;;;;12.07;5.57;;;0.60;99.90;;;;;;4457038;27;657219;-72
2023/11/25 02:14:08;;;;;;;13.63;6.97;;;0.60;99.90;;;;;;4464252;28;655824;-71
2023/11/25 02:16:56;;;;;;;18.03;7.50;;;0.60;99.90;;;;;;4440509;27;657143;-72
2023/11/25 02:19:43;;;;;;;19.63;7.77;;;0.50;99.90;;;;;;4440348;27;656522;-72
2023/11/25 02:22:31;;;;;;;5.72;3.45;;;0.40;99.90;;;;;;4464854;28;657300;-72
2023/11/25 02:25:21;;;;;;;15.20;6.93;;;0.50;99.90;;;;;;4442355;27;655313;-72
2023/11/25 02:28:08;;;;;;;16.97;8.10;;;0.50;99.90;;;;;;4436520;27;656494;-72
2023/11/25 02:30:56;;;;;;;17.03;8.20;;;0.50;99.90;;;;;;4457151;28;656894;-72
2023/11/25 02:33:44;;;;;;;10.70;5.93;;;0.40;99.90;;;;;;4432075;27;656538;-72
2023/11/25 02:36:31;;;;;;;15.90;7.97;;;0.40;99.90;;;;;;4471670;27;656871;-72
2023/11/25 02:39:19;;;;;;;16.77;8.77;;;0.40;99.90;;;;;;4438507;27;656766;-72
2023/11/25 02:42:09;;;;;;;16.33;7.97;;;0.40;99.90;;;;;;4470127;27;657395;-72
2023/11/25 02:44:56;;;;;;;18.90;8.67;;;0.40;99.90;;;;;;4433108;27;656580;-71
2023/11/25 02:47:43;;;;;;;13.35;6.82;;;0.40;99.90;;;;;;4434422;27;656992;-72
2023/11/25 02:50:31;;;;;;;13.45;7.55;;;0.50;99.90;;;;;;4458226;28;658015;-73
2023/11/25 02:53:18;;;;;;;16.47;8.47;;;0.40;99.90;;;;;;4437506;28;657329;-72
2023/11/25 02:56:07;;;;;;;13.57;7.03;;;0.30;99.90;;;;;;4450982;27;657067;-73
2023/11/25 02:58:55;;;;;;;10.20;5.87;;;0.40;99.90;;;;;;4442786;27;656439;-73
2023/11/25 03:01:48;;;;;;;16.00;7.50;;;0.40;99.90;;;;;;4444685;27;656692;-72
2023/11/25 03:04:36;;;;;;;10.43;3.03;;;0.40;99.90;;;;;;4443155;27;657806;-72
2023/11/25 03:07:24;;;;;;;16.30;6.47;;;0.40;99.90;;;;;;4441045;27;657064;-72
2023/11/25 03:10:13;;;;;;;17.23;8.27;;;0.30;99.90;;;;;;4465998;27;657187;-72
2023/11/25 03:13:00;;;;;;;9.47;5.67;;;0.30;99.90;;;;;;4429568;27;657157;-70
2023/11/25 03:15:49;;;;;;;8.27;4.45;;;0.30;99.90;;;;;;4446137;27;655784;-70
2023/11/25 03:18:37;;;;;;;15.43;5.28;;;0.30;99.90;;;;;;4466860;27;657000;-73
2023/11/25 03:21:24;;;;;;;16.93;8.17;;;0.30;99.90;;;;;;4450707;27;657139;-72
2023/11/25 03:24:13;;;;;;;25.03;6.20;;;0.30;99.90;;;;;;4458032;27;657253;-72
2023/11/25 03:27:02;;;;;;;16.15;7.53;;;0.30;99.90;;;;;;4431622;27;657700;-72
2023/11/25 03:29:49;;;;;;;18.63;8.60;;;0.30;99.90;;;;;;4439642;28;657365;-72
2023/11/25 03:32:37;;;;;;;17.17;8.57;;;0.30;99.90;;;;;;4459198;27;657676;-73
2023/11/25 03:35:25;;;;;;;16.77;9.43;;;0.40;99.90;;;;;;4419834;28;656824;-72
2023/11/25 03:38:12;;;;;;;15.47;8.60;;;0.30;99.90;;;;;;4408720;28;656480;-72
2023/11/25 03:40:59;;;;;;;16.43;8.87;;;0.30;99.90;;;;;;4421698;28;657463;-72
2023/11/25 03:43:46;;;;;;;10.20;4.90;;;0.30;99.90;;;;;;4460306;27;656686;-72
2023/11/25 03:46:34;;;;;;;12.60;7.07;;;0.30;99.90;;;;;;4429864;28;657410;-72
2023/11/25 03:49:22;;;;;;;11.67;6.10;;;0.30;99.90;;;;;;4449759;27;657463;-72
2023/11/25 03:52:10;;;;;;;16.13;8.10;;;0.40;99.90;;;;;;4430508;28;657466;-72
2023/11/25 03:54:58;;;;;;;8.10;4.77;;;0.40;99.90;;;;;;4447230;28;656989;-72
2023/11/25 03:57:45;;;;;;;14.88;7.80;;;0.40;99.90;;;;;;4456731;27;655009;-73
2023/11/25 04:00:33;;;;;;;12.52;7.40;;;0.30;99.90;;;;;;4443258;27;656808;-69
2023/11/25 04:03:21;;;;;;;14.17;7.50;;;0.30;99.90;;;;;;4461074;27;657892;-72
2023/11/25 04:06:09;;;;;;;4.87;2.90;;;0.40;99.90;;;;;;4436243;27;656572;-71
2023/11/25 04:08:57;;;;;;;7.17;3.40;;;0.30;99.90;;;;;;4457508;27;655337;-72
2023/11/25 04:11:44;;;;;;;12.33;7.10;;;0.30;99.90;;;;;;4440760;27;655850;-72
2023/11/25 04:14:31;;;;;;;16.37;7.17;;;0.20;99.90;;;;;;4455234;28;656602;-73
2023/11/25 04:17:18;;;;;;;14.87;7.50;;;0.20;99.90;;;;;;4444862;27;656524;-72
2023/11/25 04:20:12;;;;;;;13.67;7.97;;;0.20;99.90;;;;;;4457868;28;657396;-73
2023/11/25 04:23:05;;;;;;;13.17;7.60;;;0.20;99.90;;;;;;4427432;28;656512;-72
2023/11/25 04:25:53;;;;;;;10.87;6.43;;;0.10;99.90;;;;;;4442640;28;656572;-71
2023/11/25 04:28:41;;;;;;;16.80;7.55;;;0.20;99.90;;;;;;4450593;28;657151;-72
2023/11/25 04:31:28;;;;;;;9.67;4.97;;;0.30;99.90;;;;;;4426406;28;656550;-71
2023/11/25 04:34:15;;;;;;;13.77;6.23;;;0.20;99.90;;;;;;4459881;28;655634;-73
2023/11/25 04:37:03;;;;;;;17.67;8.47;;;0.30;99.90;;;;;;4434097;28;656734;-70
2023/11/25 04:39:52;;;;;;;13.30;6.77;;;0.30;99.90;;;;;;4457259;28;657084;-73
2023/11/25 04:42:39;;;;;;;16.00;8.10;;;0.20;99.90;;;;;;4428039;28;657266;-73
2023/11/25 04:45:26;;;;;;;12.97;7.80;;;0.20;99.90;;;;;;4454055;28;657112;-72
2023/11/25 04:48:14;;;;;;;15.87;7.87;;;0.20;99.90;;;;;;4427648;28;657289;-72
2023/11/25 04:51:01;;;;;;;13.03;7.63;;;0.20;99.90;;;;;;4457658;28;656256;-72
2023/11/25 04:53:48;;;;;;;16.13;8.57;;;0.20;99.90;;;;;;4429253;28;656707;-73
2023/11/25 04:56:37;;;;;;;14.77;8.33;;;0.20;99.90;;;;;;4456198;28;657251;-72
2023/11/25 04:59:25;;;;;;;11.03;6.13;;;0.20;99.90;;;;;;4439436;27;656865;-73
2023/11/25 05:02:13;;;;;;;13.47;7.40;;;0.20;99.90;;;;;;4448836;28;656609;-70
2023/11/25 05:05:00;;;;;;;13.50;8.13;;;0.20;99.90;;;;;;4446462;27;656645;-72
2023/11/25 05:07:48;;;;;;;5.90;3.23;;;0.20;99.90;;;;;;4435853;28;657105;-72
2023/11/25 05:10:36;;;;;;;10.70;7.07;;;0.20;99.90;;;;;;4467637;27;655653;-72
2023/11/25 05:13:25;;;;;;;9.57;4.90;;;0.10;99.90;;;;;;4445591;27;656958;-72
2023/11/25 05:16:12;;;;;;;9.90;4.83;;;0.10;99.90;;;;;;4468272;27;655041;-72
2023/11/25 05:18:59;;;;;;;9.00;4.00;;;0.00;99.90;;;;;;4444940;27;656656;-73
2023/11/25 05:21:46;;;;;;;8.43;3.67;;;-0.10;99.90;;;;;;4461735;27;655907;-73
2023/11/25 05:24:34;;;;;;;5.80;3.37;;;-0.10;99.90;;;;;;4428934;28;656349;-73
2023/11/25 05:27:22;;;;;;;10.47;3.60;;;-0.20;99.90;;;;;;4456419;27;656162;-72
2023/11/25 05:30:13;;;;;;;5.93;1.33;;;-0.30;99.90;;;;;;4423085;27;658219;-72
2023/11/25 05:33:00;;;;;;;6.93;3.07;;;-0.30;99.90;;;;;;4425831;28;657433;-72
2023/11/25 05:35:48;;;;;;;3.13;1.80;;;-0.40;99.90;;;;;;4455440;27;656793;-72
2023/11/25 05:38:35;;;;;;;7.57;3.97;;;-0.40;99.90;;;;;;4466746;27;656227;-73
2023/11/25 05:41:23;;;;;;;10.67;4.47;;;-0.40;99.90;;;;;;4439438;27;656655;-70
2023/11/25 05:44:10;;;;;;;8.50;4.47;;;-0.50;99.90;;;;;;4468059;27;658031;-73
2023/11/25 05:46:59;;;;;;;5.80;2.50;;;-0.40;99.90;;;;;;4446608;28;656770;-69
2023/11/25 05:49:47;;;;;;;9.40;4.30;;;-0.40;99.90;;;;;;4453750;27;656536;-72
2023/11/25 05:52:34;;;;;;;11.50;4.13;;;-0.40;99.90;;;;;;4440124;27;657249;-71
2023/11/25 05:55:21;;;;;;;9.37;4.80;;;-0.50;99.90;;;;;;4457284;27;657589;-72
2023/11/25 05:58:08;;;;;;;8.77;4.55;;;-0.50;99.90;;;;;;4434340;27;656900;-70
2023/11/25 06:00:56;;;;;;;7.57;3.83;;;-0.50;99.90;;;;;;4455143;27;656789;-73
2023/11/25 06:03:44;;;;;;;11.50;5.13;;;-0.50;99.90;;;;;;4438798;27;656189;-71
2023/11/25 06:06:31;;;;;;;7.77;3.77;;;-0.50;99.90;;;;;;4462867;27;657280;-71
2023/11/25 06:09:19;;;;;;;9.00;5.28;;;-0.60;99.90;;;;;;4435861;27;656731;-72
2023/11/25 06:12:09;;;;;;;6.67;2.00;;;-0.50;99.90;;;;;;4466281;27;656623;-73
2023/11/25 06:14:57;;;;;;;11.73;4.90;;;-0.50;99.90;;;;;;4431710;27;657294;-73
2023/11/25 06:17:45;;;;;;;10.90;5.37;;;-0.50;99.90;;;;;;4440271;27;657982;-72
2023/11/25 06:20:34;;;;;;;8.70;4.17;;;-0.50;99.90;;;;;;4458099;27;657278;-70
2023/11/25 06:23:22;;;;;;;3.13;1.50;;;-0.60;99.90;;;;;;4429992;27;656899;-73
2023/11/25 06:26:10;;;;;;;11.07;4.30;;;-0.60;99.90;;;;;;4435789;27;656724;-72
2023/11/25 06:28:57;;;;;;;3.88;2.38;;;-0.60;99.90;;;;;;4441892;27;657605;-71
2023/11/25 06:31:46;;;;;;;9.37;4.20;;;-0.60;99.90;;;;;;4455095;28;656893;-73
2023/11/25 06:34:34;;;;;;;10.10;4.47;;;-0.60;99.90;;;;;;4441308;27;656742;-72
2023/11/25 06:37:24;;;;;;;5.95;3.25;;;-0.50;99.90;;;;;;4463120;27;657223;-72
2023/11/25 06:40:13;;;;;;;8.40;3.73;;;-0.50;99.90;;;;;;4431448;28;657371;-72
2023/11/25 06:43:01;;;;;;;7.63;3.50;;;-0.50;99.90;;;;;;4444090;27;656510;-73
2023/11/25 06:45:49;;;;;;;3.27;1.83;;;-0.50;99.90;;;;;;4438775;28;656691;-71
2023/11/25 06:48:36;;;;;;;5.80;3.30;;;-0.50;99.90;;;;;;4456868;27;657232;-72
2023/11/25 06:51:23;;;;;;;2.60;0.90;;;-0.60;99.90;;;;;;4440533;27;656481;-72
2023/11/25 06:54:12;;;;;;;9.00;3.03;;;-0.60;99.90;;;;;;4457247;27;656970;-72
2023/11/25 06:56:58;;;;;;;5.97;2.80;;;-0.60;99.90;;;;;;4434039;27;657515;-71
2023/11/25 06:59:45;;;;;;;4.82;2.65;;;-0.70;99.90;;;;;;4451532;27;657498;-73
2023/11/25 07:02:33;;;;;;;8.43;1.47;;;-0.70;99.90;;;;;;4431321;28;656531;-71
2023/11/25 07:05:20;;;;;;;6.37;3.10;;;-0.60;99.90;;;;;;4458737;27;657215;-72
2023/11/25 07:08:07;;;;;;;3.93;2.33;;;-0.60;99.90;;;;;;4440220;28;656824;-70
2023/11/25 07:10:59;;;;;;;6.87;2.90;;;-0.60;99.90;;;;;;4461345;28;656471;-73
2023/11/25 07:13:46;;;;;;;2.40;1.43;;;-0.60;99.90;;;;;;4434837;28;656641;-72
2023/11/25 07:16:33;;;;;;;7.77;3.27;;;-0.60;99.90;;;;;;4429545;27;656855;-73
2023/11/25 07:19:22;;;;;;;5.53;1.33;;;-0.70;99.90;;;;;;4449922;28;657283;-73
2023/11/25 07:22:09;;;;;;;10.97;4.27;;;-0.60;99.90;;;;;;4428523;27;656889;-72
2023/11/25 07:24:56;;;;;;;7.80;2.20;;;-0.60;99.90;;;;;;4461985;27;657462;-73
2023/11/25 07:27:46;;;;;;;12.43;5.20;;;-0.60;99.90;;;;;;4436979;27;656862;-73
2023/11/25 07:30:33;;;;;;;15.00;5.70;;;-0.60;99.90;;;;;;4431093;27;657860;-73
2023/11/25 07:33:20;;;;;;;10.47;4.03;;;-0.60;99.90;;;;;;4467782;27;658203;-73
2023/11/25 07:36:08;;;;;;;11.48;5.15;;;-0.60;99.90;;;;;;4436949;27;658035;-70
2023/11/25 07:38:55;;;;;;;14.27;6.23;;;-0.50;99.90;;;;;;4393206;27;657647;-70
2023/11/25 07:41:44;;;;;;;14.07;6.47;;;-0.60;99.90;;;;;;4352370;27;658872;-69
2023/11/25 07:44:33;;;;;;;13.17;6.27;;;-0.50;99.90;;;;;;4346931;27;658279;-70
2023/11/25 07:47:20;;;;;;;9.77;3.67;;;-0.50;99.90;;;;;;4425982;28;657668;-73
2023/11/25 07:50:08;;;;;;;6.57;2.70;;;-0.50;99.90;;;;;;4440067;28;656704;-71
2023/11/25 07:52:56;;;;;;;12.53;5.80;;;-0.60;99.90;;;;;;4456751;27;657077;-73
2023/11/25 07:55:43;;;;;;;10.50;5.27;;;-0.60;99.90;;;;;;4432925;27;657695;-72
2023/11/25 07:58:30;;;;;;;13.20;5.70;;;-0.70;99.90;;;;;;4441681;28;657506;-73
2023/11/25 08:01:19;;;;;;;16.30;5.73;;;-0.60;99.90;;;;;;4433422;28;657693;-71
2023/11/25 08:04:06;;;;;;;12.53;5.13;;;-0.60;99.90;;;;;;4459997;27;657516;-72
2023/11/25 08:06:54;;;;;;;11.90;4.93;;;-0.50;99.90;;;;;;4437739;27;658297;-73
2023/11/25 08:09:41;;;;;;;4.97;2.40;;;-0.50;99.90;;;;;;4464034;27;658829;-73
2023/11/25 08:12:28;;;;;;;10.00;5.13;;;-0.50;99.90;;;;;;4425058;28;656607;-73
2023/11/25 08:15:17;;;;;;;12.13;5.33;;;-0.40;99.90;;;;;;4462689;28;657510;-73
2023/11/25 08:18:05;;;;;;;7.77;4.03;;;-0.30;99.90;;;;;;4438969;28;657534;-70
2023/11/25 08:20:53;;;;;;;7.20;3.17;;;-0.30;99.90;;;;;;4437156;28;657414;-72
2023/11/25 08:23:41;;;;;;;4.33;2.33;;;-0.20;99.90;;;;;;4459663;28;657297;-73
2023/11/25 08:26:28;;;;;;;10.53;4.10;;;-0.20;99.90;;;;;;4434519;28;656578;-73
2023/11/25 08:29:15;;;;;;;13.03;4.23;;;-0.10;99.90;;;;;;4458879;28;658498;-72
2023/11/25 08:32:02;;;;;;;11.03;4.73;;;-0.20;99.90;;;;;;4440860;28;657974;-70
2023/11/25 08:34:51;;;;;;;9.47;2.97;;;-0.20;99.90;;;;;;4468758;28;657844;-73
2023/11/25 08:37:39;;;;;;;8.57;4.43;;;0.00;99.90;;;;;;4440191;28;656974;-72
2023/11/25 08:40:27;;;;;;;9.03;4.40;;;0.00;99.90;;;;;;4479035;28;654853;-73
2023/11/25 08:43:14;;;;;;;13.90;5.23;;;0.00;99.90;;;;;;4434447;28;656668;-73
2023/11/25 08:46:01;;;;;;;9.77;4.47;;;0.10;99.90;;;;;;4450947;28;656332;-72
2023/11/25 08:48:49;;;;;;;3.27;1.73;;;0.10;99.90;;;;;;4426430;28;655527;-71
2023/11/25 08:51:37;;;;;;;7.33;3.57;;;0.30;99.90;;;;;;4452532;28;655753;-72
2023/11/25 08:54:25;;;;;;;12.07;4.85;;;0.20;99.90;;;;;;4439278;28;655944;-72
2023/11/25 08:57:13;;;;;;;13.07;5.10;;;0.30;99.90;;;;;;4435604;28;656941;-70
2023/11/25 09:00:01;;;;;;;12.63;4.40;;;0.20;99.90;;;;;;4461313;28;656420;-72
2023/11/25 09:02:54;;;;;;;10.63;4.63;;;0.20;99.90;;;;;;4432875;28;656291;-72
2023/11/25 09:05:43;;;;;;;6.87;3.13;;;0.20;99.90;;;;;;4431621;28;657892;-74
2023/11/25 09:08:36;;;;;;;12.93;4.07;;;0.10;99.90;;;;;;4441489;28;655644;-71
2023/11/25 09:11:26;;;;;;;17.30;5.68;;;0.10;99.90;;;;;;4436753;28;656661;-72
2023/11/25 09:14:21;;;;;;;15.17;5.67;;;0.30;99.90;;;;;;4434096;28;656737;-71
2023/11/25 09:17:11;;;;;;;8.40;3.70;;;0.60;99.90;;;;;;4440196;28;656490;-72
2023/11/25 09:19:59;;;;;;;14.50;5.28;;;0.60;99.90;;;;;;4435842;28;655980;-71
2023/11/25 09:22:46;;;;;;;13.10;5.80;;;0.40;99.90;;;;;;4454649;28;656548;-71
2023/11/25 09:25:35;;;;;;;19.10;6.07;;;0.90;99.90;;;;;;4430518;28;657074;-71
2023/11/25 09:28:22;;;;;;;13.03;5.93;;;1.10;99.90;;;;;;4441662;28;656511;-70
2023/11/25 09:31:09;;;;;;;6.63;3.03;;;1.40;99.90;;;;;;4444114;28;656302;-71
2023/11/25 09:33:58;;;;;;;14.13;5.70;;;1.30;99.90;;;;;;4455275;28;655923;-72
2023/11/25 09:36:46;;;;;;;2.57;1.63;;;1.90;99.90;;;;;;4429482;28;657166;-72
2023/11/25 09:39:33;;;;;;;11.40;5.90;;;2.40;99.90;;;;;;4429879;28;655597;-71
2023/11/25 09:42:21;;;;;;;13.47;5.60;;;1.80;99.90;;;;;;4448555;28;656997;-71
2023/11/25 09:45:10;;;;;;;14.13;6.07;;;1.90;99.90;;;;;;4436222;28;656724;-71
2023/11/25 09:47:57;;;;;;;12.80;5.90;;;1.20;99.90;;;;;;4445529;28;657063;-70
2023/11/25 09:50:45;;;;;;;11.73;5.23;;;1.20;99.90;;;;;;4455140;27;656311;-72
2023/11/25 09:53:32;;;;;;;12.17;6.23;;;1.00;99.90;;;;;;4450480;28;656565;-71
2023/11/25 09:56:19;;;;;;;12.57;6.00;;;0.80;99.90;;;;;;4442455;27;656893;-71
2023/11/25 09:59:09;;;;;;;15.90;5.90;;;0.60;99.90;;;;;;4457479;27;656456;-70
2023/11/25 10:01:57;;;;;;;19.27;6.50;;;0.60;99.90;;;;;;4421579;27;656523;-71
2023/11/25 10:04:45;;;;;;;4.93;2.87;;;0.40;99.90;;;;;;4440510;28;656835;-71
2023/11/25 10:07:32;;;;;;;8.43;2.83;;;0.70;99.90;;;;;;4450468;27;655540;-71
2023/11/25 10:10:23;;;;;;;13.90;6.20;;;0.60;99.90;;;;;;4462124;27;655724;-73
2023/11/25 10:13:14;;;;;;;12.73;6.13;;;0.70;99.90;;;;;;4436554;28;656997;-73
2023/11/25 10:16:03;;;;;;;12.43;5.43;;;0.80;99.90;;;;;;4425856;28;656341;-73
2023/11/25 10:18:50;;;;;;;15.27;6.23;;;1.00;99.90;;;;;;4424737;28;656982;-74
2023/11/25 10:21:38;;;;;;;12.13;5.60;;;0.60;99.90;;;;;;4433966;28;656466;-72
2023/11/25 10:24:27;;;;;;;13.00;5.40;;;0.40;99.90;;;;;;4457104;28;658430;-73
2023/11/25 10:27:14;;;;;;;11.10;5.57;;;0.40;99.90;;;;;;4444164;27;656712;-73
2023/11/25 10:30:03;;;;;;;6.80;2.43;;;0.40;99.90;;;;;;4460507;28;656443;-72
2023/11/25 10:32:54;;;;;;;8.00;4.60;;;0.50;99.90;;;;;;4436239;28;656139;-72
2023/11/25 10:35:41;;;;;;;17.00;5.87;;;0.30;99.90;;;;;;4442522;28;655177;-72
2023/11/25 10:38:31;;;;;;;19.13;7.97;;;0.40;99.90;;;;;;4438203;28;656402;-72
2023/11/25 10:41:18;;;;;;;16.40;6.80;;;0.40;99.90;;;;;;4427236;28;656779;-71
2023/11/25 10:44:07;;;;;;;11.63;5.67;;;0.60;99.90;;;;;;4462561;27;657116;-72
2023/11/25 10:46:56;;;;;;;12.10;5.50;;;0.80;99.90;;;;;;4437591;28;657142;-72
2023/11/25 10:49:44;;;;;;;8.87;4.70;;;0.80;99.90;;;;;;4437290;28;656938;-72
2023/11/25 10:52:36;;;;;;;8.43;4.63;;;0.60;99.90;;;;;;4463315;28;655281;-71
2023/11/25 10:55:25;;;;;;;12.97;4.90;;;0.60;99.90;;;;;;4406031;28;655696;-71
2023/11/25 10:58:12;;;;;;;10.07;5.23;;;0.40;99.90;;;;;;4429917;28;657399;-69
2023/11/25 11:01:00;;;;;;;16.73;6.23;;;0.50;99.90;;;;;;4448528;28;656737;-72
2023/11/25 11:03:53;;;;;;;11.97;5.43;;;0.60;99.90;;;;;;4453488;28;657235;-71
2023/11/25 11:06:49;;;;;;;10.30;5.37;;;0.50;99.90;;;;;;4428299;28;657075;-72
2023/11/25 11:09:36;;;;;;;13.03;5.70;;;0.70;99.90;;;;;;4427694;28;657377;-72
2023/11/25 11:12:28;;;;;;;9.77;4.07;;;0.70;99.90;;;;;;4439132;28;656892;-72
2023/11/25 11:15:16;;;;;;;7.03;2.70;;;0.70;99.90;;;;;;4433271;28;656027;-73
2023/11/25 11:18:08;;;;;;;5.40;3.50;;;1.40;99.90;;;;;;4432948;27;656380;-71
2023/11/25 11:20:55;;;;;;;9.87;4.20;;;0.90;99.90;;;;;;4425699;28;656422;-71
2023/11/25 11:23:44;;;;;;;10.87;4.53;;;0.60;99.90;;;;;;4446853;28;655515;-70
2023/11/25 11:26:33;;;;;;;8.93;4.90;;;0.60;99.90;;;;;;4462016;28;655790;-71
2023/11/25 11:29:28;;;;;;;8.77;4.47;;;0.60;99.90;;;;;;4437930;28;656703;-72
2023/11/25 11:32:15;;;;;;;14.80;4.60;;;0.60;99.90;;;;;;4424300;28;655644;-71
2023/11/25 11:35:03;;;;;;;2.03;1.10;;;0.60;99.90;;;;;;4437035;28;656783;-69
2023/11/25 11:37:50;;;;;;;10.20;4.90;;;0.70;99.90;;;;;;4445531;28;656990;-72
2023/11/25 11:40:39;;;;;;;12.02;5.53;;;0.70;99.90;;;;;;4439667;27;656942;-69
2023/11/25 11:43:27;;;;;;;9.87;5.50;;;0.50;99.90;;;;;;4453071;28;656638;-72
2023/11/25 11:46:15;;;;;;;9.30;4.70;;;0.40;99.90;;;;;;4429010;28;655858;-72
2023/11/25 11:49:02;;;;;;;8.00;3.90;;;0.30;99.90;;;;;;4451956;28;655165;-71
2023/11/25 11:52:02;;;;;;;6.50;3.07;;;0.40;99.90;;;;;;4430590;28;655640;-71
2023/11/25 11:54:49;;;;;;;7.77;3.67;;;0.50;99.90;;;;;;4433053;28;656352;-71
2023/11/25 11:58:02;;;;;;;15.80;5.63;;;0.40;99.90;;;;;;4459054;28;655962;-71
2023/11/25 12:00:49;;;;;;;15.37;4.67;;;0.30;99.90;;;;;;4407345;28;657016;-71
2023/11/25 12:03:37;;;;;;;8.20;4.23;;;0.40;99.90;;;;;;4450641;28;656643;-72
2023/11/25 12:06:25;;;;;;;9.90;4.47;;;0.40;99.90;;;;;;4437588;28;655720;-70
2023/11/25 12:09:16;;;;;;;6.47;3.17;;;0.30;99.90;;;;;;4454370;28;655880;-70
2023/11/25 12:12:04;;;;;;;8.00;3.90;;;0.50;99.90;;;;;;4436163;27;655626;-71
2023/11/25 12:14:52;;;;;;;7.57;3.50;;;0.40;99.90;;;;;;4450314;28;655858;-72
2023/11/25 12:17:41;;;;;;;8.73;3.80;;;0.60;99.90;;;;;;4439026;28;655256;-70
2023/11/25 12:20:29;;;;;;;6.57;2.20;;;0.80;99.90;;;;;;4439483;28;655516;-71
2023/11/25 12:23:17;;;;;;;6.80;2.73;;;0.90;99.90;;;;;;4459364;28;656071;-71
2023/11/25 12:26:06;;;;;;;11.60;4.63;;;0.80;99.90;;;;;;4421150;28;656260;-69
2023/11/25 12:28:53;;;;;;;7.13;3.80;;;0.60;99.90;;;;;;4442966;28;656470;-71
2023/11/25 12:31:42;;;;;;;6.63;3.50;;;0.50;99.90;;;;;;4458101;28;656281;-71
2023/11/25 12:34:29;;;;;;;11.73;4.30;;;0.40;99.90;;;;;;4440625;28;655657;-71
2023/11/25 12:37:17;;;;;;;4.43;2.13;;;0.20;99.90;;;;;;4453584;28;657158;-70
2023/11/25 12:40:18;;;;;;;9.00;3.90;;;0.30;99.90;;;;;;4429127;28;656413;-71
2023/11/25 12:43:06;;;;;;;6.63;3.70;;;0.10;99.90;;;;;;4433733;28;656276;-71
2023/11/25 12:45:54;;;;;;;6.57;3.77;;;0.10;99.90;;;;;;4422964;28;657035;-70
2023/11/25 12:48:42;;;;;;;10.13;4.00;;;0.30;99.90;;;;;;4447164;28;656130;-70
2023/11/25 12:51:31;;;;;;;11.27;4.17;;;0.50;99.90;;;;;;4428739;28;657677;-71
2023/11/25 12:54:18;;;;;;;7.87;3.63;;;0.30;99.90;;;;;;4436669;28;656983;-71
2023/11/25 12:57:06;;;;;;;14.00;4.60;;;0.50;99.90;;;;;;4453528;28;655747;-71
2023/11/25 12:59:55;;;;;;;11.83;4.07;;;0.50;99.90;;;;;;4439459;28;656739;-71
2023/11/25 13:02:45;;;;;;;8.20;3.75;;;0.60;99.90;;;;;;4432326;28;656922;-70
2023/11/25 13:05:35;;;;;;;11.03;4.67;;;0.60;99.90;;;;;;4448120;28;655927;-69
2023/11/25 13:08:27;;;;;;;8.50;3.45;;;0.60;99.90;;;;;;4444341;28;656263;-69
2023/11/25 13:11:17;;;;;;;9.63;3.93;;;0.60;99.90;;;;;;4423421;28;656220;-71
2023/11/25 13:14:05;;;;;;;6.27;2.93;;;0.40;99.90;;;;;;4433849;28;656903;-72
2023/11/25 13:16:52;;;;;;;8.30;3.90;;;0.40;99.90;;;;;;4453282;28;655576;-70
2023/11/25 13:19:40;;;;;;;9.03;3.23;;;0.40;99.90;;;;;;4458756;27;655076;-71
2023/11/25 13:22:29;;;;;;;3.70;2.13;;;0.40;99.90;;;;;;4445839;27;655575;-70
2023/11/25 13:25:16;;;;;;;5.60;2.87;;;0.40;99.90;;;;;;4465315;27;655503;-71
2023/11/25 13:28:05;;;;;;;7.33;3.43;;;0.30;99.90;;;;;;4444630;27;656003;-71
2023/11/25 13:30:52;;;;;;;10.27;3.73;;;0.30;99.90;;;;;;4453449;27;655768;-70
2023/11/25 13:33:40;;;;;;;8.43;3.47;;;0.10;99.90;;;;;;4461578;27;656975;-71
2023/11/25 13:36:27;;;;;;;10.77;4.13;;;0.20;99.90;;;;;;4441727;28;655627;-69
2023/11/25 13:39:19;;;;;;;9.07;4.30;;;0.10;99.90;;;;;;4443087;27;657314;-69
2023/11/25 13:42:07;;;;;;;7.90;3.77;;;0.20;99.90;;;;;;4354008;27;657304;-69
2023/11/25 13:44:54;;;;;;;9.70;4.07;;;0.20;99.90;;;;;;4329853;27;655899;-69
2023/11/25 13:47:42;;;;;;;7.70;3.37;;;0.20;99.90;;;;;;4365071;28;656478;-71
2023/11/25 13:50:29;;;;;;;12.30;5.47;;;0.40;99.90;;;;;;4437698;28;655989;-71
2023/11/25 13:53:18;;;;;;;10.03;4.13;;;0.00;99.90;;;;;;4457211;28;656041;-70
2023/11/25 13:56:08;;;;;;;10.73;4.77;;;0.00;99.90;;;;;;4435902;27;657265;-71
2023/11/25 13:58:57;;;;;;;8.60;4.40;;;0.10;99.90;;;;;;4422016;28;656993;-71
2023/11/25 14:01:46;;;;;;;10.40;4.13;;;0.00;99.90;;;;;;4433842;28;657028;-70
2023/11/25 14:04:33;;;;;;;6.43;3.30;;;0.00;99.90;;;;;;4428504;28;656613;-69
2023/11/25 14:07:21;;;;;;;10.23;4.88;;;-0.10;99.90;;;;;;4454632;28;656263;-71
2023/11/25 14:10:09;;;;;;;9.60;4.37;;;-0.10;99.90;;;;;;4424553;28;657666;-71
2023/11/25 14:12:58;;;;;;;7.17;3.87;;;-0.20;99.90;;;;;;4453462;28;657966;-71
2023/11/25 14:15:45;;;;;;;11.70;4.40;;;-0.20;99.90;;;;;;4427929;27;657209;-72
2023/11/25 14:18:32;;;;;;;13.20;4.10;;;-0.20;99.90;;;;;;4441082;28;657452;-70
2023/11/25 14:21:19;;;;;;;13.82;5.85;;;-0.30;99.90;;;;;;4469443;27;658470;-71
2023/11/25 14:24:07;;;;;;;16.60;6.33;;;-0.30;99.90;;;;;;4466010;27;658095;-72
2023/11/25 14:26:54;;;;;;;13.93;5.43;;;-0.30;99.90;;;;;;4434527;27;658816;-72